sensor_id;sensor_type;location;lat;lon;timestamp;P1;durP1;ratioP1;P2;durP2;ratioP2
28335;SDS011;15592;53.656;7.276;2022-09-02T00:00:53;1.10;;;1.00;;
28335;SDS011;15592;53.656;7.276;2022-09-02T00:03:25;2.15;;;1.10;;
28335;SDS011;15592;53.656;7.276;2022-09-02T00:05:51;1.08;;;0.95;;
28335;SDS011;15592;53.656;7.276;2022-09-02T00:08:17;1.15;;;1.05;;
28335;SDS011;15592;53.656;7.276;2022-09-02T00:10:43;1.02;;;0.93;;
28335;SDS011;15592;53.656;7.276;2022-09-02T00:13:11;1.48;;;1.38;;
28335;SDS011;15592;53.656;7.276;2022-09-02T00:15:39;1.23;;;1.00;;
28335;SDS011;15592;53.656;7.276;2022-09-02T00:18:05;1.02;;;0.93;;
28335;SDS011;15592;53.656;7.276;2022-09-02T00:20:32;1.20;;;1.10;;
28335;SDS011;15592;53.656;7.276;2022-09-02T00:22:58;1.08;;;0.98;;
28335;SDS011;15592;53.656;7.276;2022-09-02T00:25:24;1.55;;;1.15;;
28335;SDS011;15592;53.656;7.276;2022-09-02T00:27:50;0.93;;;0.90;;
28335;SDS011;15592;53.656;7.276;2022-09-02T00:30:16;1.23;;;1.10;;
28335;SDS011;15592;53.656;7.276;2022-09-02T00:32:41;1.67;;;0.98;;
28335;SDS011;15592;53.656;7.276;2022-09-02T00:35:07;1.85;;;1.17;;
28335;SDS011;15592;53.656;7.276;2022-09-02T00:37:35;1.05;;;0.80;;
28335;SDS011;15592;53.656;7.276;2022-09-02T00:40:01;1.10;;;0.95;;
28335;SDS011;15592;53.656;7.276;2022-09-02T00:42:27;1.17;;;1.08;;
28335;SDS011;15592;53.656;7.276;2022-09-02T00:44:53;1.30;;;1.20;;
28335;SDS011;15592;53.656;7.276;2022-09-02T00:47:19;1.15;;;0.90;;
28335;SDS011;15592;53.656;7.276;2022-09-02T00:49:47;1.50;;;0.82;;
28335;SDS011;15592;53.656;7.276;2022-09-02T00:54:59;1.10;;;1.00;;
28335;SDS011;15592;53.656;7.276;2022-09-02T00:57:32;1.10;;;1.00;;
28335;SDS011;15592;53.656;7.276;2022-09-02T01:00:14;1.10;;;1.00;;
28335;SDS011;15592;53.656;7.276;2022-09-02T01:02:43;1.40;;;1.20;;
28335;SDS011;15592;53.656;7.276;2022-09-02T01:05:14;1.10;;;1.00;;
28335;SDS011;15592;53.656;7.276;2022-09-02T01:07:41;1.08;;;1.00;;
28335;SDS011;15592;53.656;7.276;2022-09-02T01:10:09;1.13;;;1.02;;
28335;SDS011;15592;53.656;7.276;2022-09-02T01:12:38;2.28;;;1.13;;
28335;SDS011;15592;53.656;7.276;2022-09-02T01:15:05;1.20;;;1.00;;
28335;SDS011;15592;53.656;7.276;2022-09-02T01:17:33;2.42;;;1.30;;
28335;SDS011;15592;53.656;7.276;2022-09-02T01:20:05;1.20;;;1.10;;
28335;SDS011;15592;53.656;7.276;2022-09-02T01:22:36;0.93;;;0.82;;
28335;SDS011;15592;53.656;7.276;2022-09-02T01:25:07;1.05;;;0.95;;
28335;SDS011;15592;53.656;7.276;2022-09-02T01:27:36;1.42;;;1.17;;
28335;SDS011;15592;53.656;7.276;2022-09-02T01:30:03;0.85;;;0.80;;
28335;SDS011;15592;53.656;7.276;2022-09-02T01:32:30;0.80;;;0.80;;
28335;SDS011;15592;53.656;7.276;2022-09-02T01:34:56;1.25;;;0.90;;
28335;SDS011;15592;53.656;7.276;2022-09-02T01:37:23;0.90;;;0.90;;
28335;SDS011;15592;53.656;7.276;2022-09-02T01:39:49;1.20;;;1.10;;
28335;SDS011;15592;53.656;7.276;2022-09-02T01:42:16;0.90;;;0.90;;
28335;SDS011;15592;53.656;7.276;2022-09-02T01:44:42;1.00;;;1.00;;
28335;SDS011;15592;53.656;7.276;2022-09-02T01:47:41;1.20;;;1.10;;
28335;SDS011;15592;53.656;7.276;2022-09-02T01:50:01;1.00;;;0.90;;
28335;SDS011;15592;53.656;7.276;2022-09-02T01:52:29;1.10;;;1.00;;
28335;SDS011;15592;53.656;7.276;2022-09-02T01:54:55;1.10;;;1.00;;
28335;SDS011;15592;53.656;7.276;2022-09-02T01:57:21;1.13;;;1.02;;
28335;SDS011;15592;53.656;7.276;2022-09-02T01:59:50;1.00;;;0.88;;
28335;SDS011;15592;53.656;7.276;2022-09-02T02:02:17;1.13;;;0.98;;
28335;SDS011;15592;53.656;7.276;2022-09-02T02:04:45;0.80;;;0.80;;
28335;SDS011;15592;53.656;7.276;2022-09-02T02:07:15;1.10;;;1.00;;
28335;SDS011;15592;53.656;7.276;2022-09-02T02:09:42;0.95;;;0.90;;
28335;SDS011;15592;53.656;7.276;2022-09-02T02:12:09;1.00;;;0.88;;
28335;SDS011;15592;53.656;7.276;2022-09-02T02:14:35;1.17;;;1.08;;
28335;SDS011;15592;53.656;7.276;2022-09-02T02:17:01;1.05;;;0.90;;
28335;SDS011;15592;53.656;7.276;2022-09-02T02:19:27;0.93;;;0.90;;
28335;SDS011;15592;53.656;7.276;2022-09-02T02:21:53;0.73;;;0.73;;
28335;SDS011;15592;53.656;7.276;2022-09-02T02:24:19;0.70;;;0.70;;
28335;SDS011;15592;53.656;7.276;2022-09-02T02:26:44;1.10;;;0.90;;
28335;SDS011;15592;53.656;7.276;2022-09-02T02:29:10;1.10;;;0.90;;
28335;SDS011;15592;53.656;7.276;2022-09-02T02:31:36;1.13;;;0.95;;
28335;SDS011;15592;53.656;7.276;2022-09-02T02:34:02;0.82;;;0.82;;
28335;SDS011;15592;53.656;7.276;2022-09-02T02:36:28;1.02;;;0.93;;
28335;SDS011;15592;53.656;7.276;2022-09-02T02:38:54;1.02;;;0.93;;
28335;SDS011;15592;53.656;7.276;2022-09-02T02:41:20;0.98;;;0.90;;
28335;SDS011;15592;53.656;7.276;2022-09-02T02:43:45;1.15;;;1.05;;
28335;SDS011;15592;53.656;7.276;2022-09-02T02:46:12;1.17;;;1.08;;
28335;SDS011;15592;53.656;7.276;2022-09-02T02:48:39;1.10;;;1.00;;
28335;SDS011;15592;53.656;7.276;2022-09-02T02:51:05;1.10;;;1.00;;
28335;SDS011;15592;53.656;7.276;2022-09-02T02:53:32;1.10;;;1.00;;
28335;SDS011;15592;53.656;7.276;2022-09-02T02:56:00;1.00;;;1.00;;
28335;SDS011;15592;53.656;7.276;2022-09-02T02:58:26;0.90;;;0.90;;
28335;SDS011;15592;53.656;7.276;2022-09-02T03:00:53;0.95;;;0.90;;
28335;SDS011;15592;53.656;7.276;2022-09-02T03:03:19;1.08;;;0.98;;
28335;SDS011;15592;53.656;7.276;2022-09-02T03:05:47;1.10;;;1.00;;
28335;SDS011;15592;53.656;7.276;2022-09-02T03:08:13;1.17;;;0.80;;
28335;SDS011;15592;53.656;7.276;2022-09-02T03:10:40;0.90;;;0.90;;
28335;SDS011;15592;53.656;7.276;2022-09-02T03:13:06;0.90;;;0.88;;
28335;SDS011;15592;53.656;7.276;2022-09-02T03:15:34;1.10;;;1.00;;
28335;SDS011;15592;53.656;7.276;2022-09-02T03:18:01;1.10;;;1.00;;
28335;SDS011;15592;53.656;7.276;2022-09-02T03:20:27;1.00;;;0.90;;
28335;SDS011;15592;53.656;7.276;2022-09-02T03:22:54;2.63;;;0.90;;
28335;SDS011;15592;53.656;7.276;2022-09-02T03:25:21;1.13;;;1.02;;
28335;SDS011;15592;53.656;7.276;2022-09-02T03:27:47;0.90;;;0.90;;
28335;SDS011;15592;53.656;7.276;2022-09-02T03:30:14;1.30;;;1.17;;
28335;SDS011;15592;53.656;7.276;2022-09-02T03:32:43;1.20;;;1.10;;
28335;SDS011;15592;53.656;7.276;2022-09-02T03:35:10;1.27;;;1.08;;
28335;SDS011;15592;53.656;7.276;2022-09-02T03:37:38;1.20;;;1.10;;
28335;SDS011;15592;53.656;7.276;2022-09-02T03:40:06;1.50;;;1.15;;
28335;SDS011;15592;53.656;7.276;2022-09-02T03:42:34;1.10;;;1.02;;
28335;SDS011;15592;53.656;7.276;2022-09-02T03:45:00;1.20;;;1.10;;
28335;SDS011;15592;53.656;7.276;2022-09-02T03:47:26;1.58;;;1.13;;
28335;SDS011;15592;53.656;7.276;2022-09-02T03:49:54;1.20;;;1.10;;
28335;SDS011;15592;53.656;7.276;2022-09-02T03:52:19;3.58;;;1.20;;
28335;SDS011;15592;53.656;7.276;2022-09-02T03:54:46;1.80;;;1.35;;
28335;SDS011;15592;53.656;7.276;2022-09-02T03:57:14;1.30;;;1.20;;
28335;SDS011;15592;53.656;7.276;2022-09-02T03:59:40;1.50;;;1.10;;
28335;SDS011;15592;53.656;7.276;2022-09-02T04:02:05;1.27;;;1.17;;
28335;SDS011;15592;53.656;7.276;2022-09-02T04:04:31;1.38;;;1.20;;
28335;SDS011;15592;53.656;7.276;2022-09-02T04:06:57;1.80;;;1.50;;
28335;SDS011;15592;53.656;7.276;2022-09-02T04:09:25;1.20;;;1.10;;
28335;SDS011;15592;53.656;7.276;2022-09-02T04:11:52;1.30;;;1.20;;
28335;SDS011;15592;53.656;7.276;2022-09-02T04:14:18;1.02;;;0.98;;
28335;SDS011;15592;53.656;7.276;2022-09-02T04:16:43;1.45;;;1.35;;
28335;SDS011;15592;53.656;7.276;2022-09-02T04:19:09;1.30;;;1.20;;
28335;SDS011;15592;53.656;7.276;2022-09-02T04:21:36;1.33;;;1.20;;
28335;SDS011;15592;53.656;7.276;2022-09-02T04:24:04;1.42;;;1.20;;
28335;SDS011;15592;53.656;7.276;2022-09-02T04:26:31;1.30;;;1.20;;
28335;SDS011;15592;53.656;7.276;2022-09-02T04:32:27;1.20;;;1.10;;
28335;SDS011;15592;53.656;7.276;2022-09-02T04:35:10;1.08;;;0.98;;
28335;SDS011;15592;53.656;7.276;2022-09-02T04:40:40;1.10;;;1.00;;
28335;SDS011;15592;53.656;7.276;2022-09-02T04:43:08;1.65;;;1.20;;
28335;SDS011;15592;53.656;7.276;2022-09-02T04:45:34;1.10;;;1.00;;
28335;SDS011;15592;53.656;7.276;2022-09-02T04:48:05;1.10;;;1.00;;
28335;SDS011;15592;53.656;7.276;2022-09-02T04:50:31;1.10;;;0.98;;
28335;SDS011;15592;53.656;7.276;2022-09-02T04:52:57;0.90;;;0.90;;
28335;SDS011;15592;53.656;7.276;2022-09-02T04:55:23;1.20;;;0.90;;
28335;SDS011;15592;53.656;7.276;2022-09-02T05:03:56;1.13;;;1.00;;
28335;SDS011;15592;53.656;7.276;2022-09-02T05:10:02;0.95;;;0.85;;
28335;SDS011;15592;53.656;7.276;2022-09-02T05:12:30;0.70;;;0.70;;
28335;SDS011;15592;53.656;7.276;2022-09-02T05:14:56;1.20;;;1.10;;
28335;SDS011;15592;53.656;7.276;2022-09-02T05:17:24;1.00;;;0.90;;
28335;SDS011;15592;53.656;7.276;2022-09-02T05:19:50;1.05;;;0.90;;
28335;SDS011;15592;53.656;7.276;2022-09-02T05:22:16;1.67;;;1.13;;
28335;SDS011;15592;53.656;7.276;2022-09-02T05:24:42;0.95;;;0.85;;
28335;SDS011;15592;53.656;7.276;2022-09-02T05:27:08;1.10;;;1.00;;
28335;SDS011;15592;53.656;7.276;2022-09-02T05:29:36;0.95;;;0.85;;
28335;SDS011;15592;53.656;7.276;2022-09-02T05:32:02;1.10;;;1.00;;
28335;SDS011;15592;53.656;7.276;2022-09-02T05:34:28;0.80;;;0.80;;
28335;SDS011;15592;53.656;7.276;2022-09-02T05:36:54;0.70;;;0.70;;
28335;SDS011;15592;53.656;7.276;2022-09-02T05:39:20;0.93;;;0.93;;
28335;SDS011;15592;53.656;7.276;2022-09-02T05:41:46;1.08;;;0.98;;
28335;SDS011;15592;53.656;7.276;2022-09-02T05:44:12;1.00;;;0.90;;
28335;SDS011;15592;53.656;7.276;2022-09-02T05:46:37;1.20;;;1.10;;
28335;SDS011;15592;53.656;7.276;2022-09-02T05:49:03;1.75;;;1.33;;
28335;SDS011;15592;53.656;7.276;2022-09-02T05:51:32;1.20;;;1.10;;
28335;SDS011;15592;53.656;7.276;2022-09-02T05:54:19;1.48;;;1.38;;
28335;SDS011;15592;53.656;7.276;2022-09-02T05:56:59;1.10;;;1.00;;
28335;SDS011;15592;53.656;7.276;2022-09-02T05:59:28;0.90;;;0.90;;
28335;SDS011;15592;53.656;7.276;2022-09-02T06:01:58;1.13;;;1.00;;
28335;SDS011;15592;53.656;7.276;2022-09-02T06:04:24;1.00;;;1.00;;
28335;SDS011;15592;53.656;7.276;2022-09-02T06:06:50;0.80;;;0.80;;
28335;SDS011;15592;53.656;7.276;2022-09-02T06:09:16;1.20;;;1.10;;
28335;SDS011;15592;53.656;7.276;2022-09-02T06:11:45;1.50;;;1.15;;
28335;SDS011;15592;53.656;7.276;2022-09-02T06:14:13;1.75;;;1.10;;
28335;SDS011;15592;53.656;7.276;2022-09-02T06:16:44;1.00;;;0.90;;
28335;SDS011;15592;53.656;7.276;2022-09-02T06:19:10;1.30;;;1.20;;
28335;SDS011;15592;53.656;7.276;2022-09-02T06:21:36;1.30;;;1.20;;
28335;SDS011;15592;53.656;7.276;2022-09-02T06:24:06;1.30;;;1.20;;
28335;SDS011;15592;53.656;7.276;2022-09-02T06:28:58;1.50;;;1.40;;
28335;SDS011;15592;53.656;7.276;2022-09-02T06:31:24;1.70;;;1.40;;
28335;SDS011;15592;53.656;7.276;2022-09-02T06:33:50;1.85;;;1.50;;
28335;SDS011;15592;53.656;7.276;2022-09-02T06:36:18;1.90;;;1.25;;
28335;SDS011;15592;53.656;7.276;2022-09-02T06:38:46;1.30;;;1.20;;
28335;SDS011;15592;53.656;7.276;2022-09-02T06:41:14;1.30;;;1.20;;
28335;SDS011;15592;53.656;7.276;2022-09-02T06:43:41;1.48;;;1.38;;
28335;SDS011;15592;53.656;7.276;2022-09-02T06:46:07;1.30;;;1.20;;
28335;SDS011;15592;53.656;7.276;2022-09-02T06:48:38;1.50;;;1.40;;
28335;SDS011;15592;53.656;7.276;2022-09-02T06:51:04;1.85;;;1.55;;
28335;SDS011;15592;53.656;7.276;2022-09-02T06:53:29;1.60;;;1.48;;
28335;SDS011;15592;53.656;7.276;2022-09-02T06:55:55;1.73;;;1.58;;
28335;SDS011;15592;53.656;7.276;2022-09-02T06:58:20;1.92;;;1.40;;
28335;SDS011;15592;53.656;7.276;2022-09-02T07:00:46;1.60;;;1.40;;
28335;SDS011;15592;53.656;7.276;2022-09-02T07:03:11;1.83;;;1.50;;
28335;SDS011;15592;53.656;7.276;2022-09-02T07:06:06;1.60;;;1.50;;
28335;SDS011;15592;53.656;7.276;2022-09-02T07:08:34;1.48;;;1.38;;
28335;SDS011;15592;53.656;7.276;2022-09-02T07:11:04;1.98;;;1.63;;
28335;SDS011;15592;53.656;7.276;2022-09-02T07:13:31;1.70;;;1.60;;
28335;SDS011;15592;53.656;7.276;2022-09-02T07:15:58;2.22;;;1.77;;
28335;SDS011;15592;53.656;7.276;2022-09-02T07:18:23;2.13;;;1.60;;
28335;SDS011;15592;53.656;7.276;2022-09-02T07:20:49;3.08;;;1.75;;
28335;SDS011;15592;53.656;7.276;2022-09-02T07:23:15;2.67;;;1.73;;
28335;SDS011;15592;53.656;7.276;2022-09-02T07:25:41;3.17;;;2.00;;
28335;SDS011;15592;53.656;7.276;2022-09-02T07:28:07;1.70;;;1.50;;
28335;SDS011;15592;53.656;7.276;2022-09-02T07:30:46;2.17;;;1.40;;
28335;SDS011;15592;53.656;7.276;2022-09-02T07:33:11;2.75;;;1.63;;
28335;SDS011;15592;53.656;7.276;2022-09-02T07:35:38;1.75;;;1.50;;
28335;SDS011;15592;53.656;7.276;2022-09-02T07:38:07;1.92;;;1.60;;
28335;SDS011;15592;53.656;7.276;2022-09-02T07:40:34;3.15;;;1.45;;
28335;SDS011;15592;53.656;7.276;2022-09-02T07:43:01;1.50;;;1.30;;
28335;SDS011;15592;53.656;7.276;2022-09-02T07:45:28;2.03;;;1.48;;
28335;SDS011;15592;53.656;7.276;2022-09-02T07:47:55;2.30;;;1.33;;
28335;SDS011;15592;53.656;7.276;2022-09-02T07:50:23;2.75;;;1.60;;
28335;SDS011;15592;53.656;7.276;2022-09-02T07:52:54;2.08;;;1.40;;
28335;SDS011;15592;53.656;7.276;2022-09-02T07:55:21;1.60;;;1.50;;
28335;SDS011;15592;53.656;7.276;2022-09-02T07:57:48;1.45;;;1.33;;
28335;SDS011;15592;53.656;7.276;2022-09-02T08:00:16;1.50;;;1.40;;
28335;SDS011;15592;53.656;7.276;2022-09-02T08:02:43;2.75;;;1.50;;
28335;SDS011;15592;53.656;7.276;2022-09-02T08:05:10;1.58;;;1.48;;
28335;SDS011;15592;53.656;7.276;2022-09-02T08:07:36;1.70;;;1.50;;
28335;SDS011;15592;53.656;7.276;2022-09-02T08:10:02;1.60;;;1.50;;
28335;SDS011;15592;53.656;7.276;2022-09-02T08:12:31;2.95;;;1.50;;
28335;SDS011;15592;53.656;7.276;2022-09-02T08:14:57;1.70;;;1.60;;
28335;SDS011;15592;53.656;7.276;2022-09-02T08:17:22;2.10;;;1.52;;
28335;SDS011;15592;53.656;7.276;2022-09-02T08:19:48;1.63;;;1.52;;
28335;SDS011;15592;53.656;7.276;2022-09-02T08:22:14;1.75;;;1.63;;
28335;SDS011;15592;53.656;7.276;2022-09-02T08:24:39;1.50;;;1.40;;
28335;SDS011;15592;53.656;7.276;2022-09-02T08:27:05;2.63;;;1.70;;
28335;SDS011;15592;53.656;7.276;2022-09-02T08:29:30;1.85;;;1.67;;
28335;SDS011;15592;53.656;7.276;2022-09-02T08:31:56;4.63;;;4.13;;
28335;SDS011;15592;53.656;7.276;2022-09-02T08:34:22;3.80;;;3.33;;
28335;SDS011;15592;53.656;7.276;2022-09-02T08:36:47;2.97;;;2.67;;
28335;SDS011;15592;53.656;7.276;2022-09-02T08:39:16;4.53;;;2.50;;
28335;SDS011;15592;53.656;7.276;2022-09-02T08:42:02;2.28;;;2.08;;
28335;SDS011;15592;53.656;7.276;2022-09-02T08:44:35;2.70;;;2.00;;
28335;SDS011;15592;53.656;7.276;2022-09-02T08:47:02;3.70;;;1.95;;
28335;SDS011;15592;53.656;7.276;2022-09-02T08:52:03;2.75;;;1.80;;
28335;SDS011;15592;53.656;7.276;2022-09-02T08:57:14;2.00;;;1.90;;
28335;SDS011;15592;53.656;7.276;2022-09-02T08:59:40;2.30;;;1.98;;
28335;SDS011;15592;53.656;7.276;2022-09-02T09:15:48;2.08;;;1.88;;
28335;SDS011;15592;53.656;7.276;2022-09-02T09:18:18;2.08;;;1.88;;
28335;SDS011;15592;53.656;7.276;2022-09-02T09:20:48;2.33;;;2.13;;
28335;SDS011;15592;53.656;7.276;2022-09-02T09:23:33;2.33;;;2.13;;
28335;SDS011;15592;53.656;7.276;2022-09-02T09:26:12;3.95;;;2.22;;
28335;SDS011;15592;53.656;7.276;2022-09-02T09:28:43;2.03;;;1.60;;
28335;SDS011;15592;53.656;7.276;2022-09-02T09:31:22;2.20;;;1.73;;
28335;SDS011;15592;53.656;7.276;2022-09-02T09:34:10;1.73;;;1.55;;
28335;SDS011;15592;53.656;7.276;2022-09-02T09:39:25;1.92;;;1.60;;
28335;SDS011;15592;53.656;7.276;2022-09-02T09:44:45;1.70;;;1.50;;
28335;SDS011;15592;53.656;7.276;2022-09-02T09:47:24;2.65;;;1.90;;
28335;SDS011;15592;53.656;7.276;2022-09-02T09:49:51;2.13;;;1.70;;
28335;SDS011;15592;53.656;7.276;2022-09-02T09:52:36;2.13;;;1.30;;
28335;SDS011;15592;53.656;7.276;2022-09-02T09:55:05;2.35;;;1.20;;
28335;SDS011;15592;53.656;7.276;2022-09-02T09:57:31;2.95;;;1.58;;
28335;SDS011;15592;53.656;7.276;2022-09-02T09:59:56;1.95;;;1.45;;
28335;SDS011;15592;53.656;7.276;2022-09-02T10:02:25;2.50;;;1.73;;
28335;SDS011;15592;53.656;7.276;2022-09-02T10:04:53;2.17;;;1.23;;
28335;SDS011;15592;53.656;7.276;2022-09-02T10:07:38;3.25;;;1.50;;
28335;SDS011;15592;53.656;7.276;2022-09-02T10:10:24;1.65;;;1.33;;
28335;SDS011;15592;53.656;7.276;2022-09-02T10:12:52;1.70;;;1.50;;
28335;SDS011;15592;53.656;7.276;2022-09-02T10:15:23;2.97;;;1.73;;
28335;SDS011;15592;53.656;7.276;2022-09-02T10:20:46;3.38;;;1.58;;
28335;SDS011;15592;53.656;7.276;2022-09-02T10:31:51;1.63;;;1.42;;
28335;SDS011;15592;53.656;7.276;2022-09-02T10:35:06;1.90;;;1.63;;
28335;SDS011;15592;53.656;7.276;2022-09-02T10:40:16;1.60;;;1.38;;
28335;SDS011;15592;53.656;7.276;2022-09-02T10:42:46;2.75;;;1.67;;
28335;SDS011;15592;53.656;7.276;2022-09-02T10:45:15;2.15;;;1.80;;
28335;SDS011;15592;53.656;7.276;2022-09-02T10:50:54;2.28;;;1.35;;
28335;SDS011;15592;53.656;7.276;2022-09-02T10:56:16;3.70;;;1.45;;
28335;SDS011;15592;53.656;7.276;2022-09-02T11:01:23;1.90;;;1.30;;
28335;SDS011;15592;53.656;7.276;2022-09-02T11:06:39;1.30;;;1.20;;
28335;SDS011;15592;53.656;7.276;2022-09-02T11:13:02;1.77;;;1.40;;
28335;SDS011;15592;53.656;7.276;2022-09-02T11:18:01;3.30;;;1.33;;
28335;SDS011;15592;53.656;7.276;2022-09-02T11:21:01;2.90;;;1.27;;
28335;SDS011;15592;53.656;7.276;2022-09-02T11:28:54;1.15;;;1.05;;
28335;SDS011;15592;53.656;7.276;2022-09-02T11:31:26;2.50;;;1.25;;
28335;SDS011;15592;53.656;7.276;2022-09-02T11:34:18;1.35;;;1.10;;
28335;SDS011;15592;53.656;7.276;2022-09-02T11:36:58;1.42;;;1.00;;
28335;SDS011;15592;53.656;7.276;2022-09-02T11:50:36;2.10;;;1.05;;
28335;SDS011;15592;53.656;7.276;2022-09-02T11:53:28;1.40;;;1.30;;
28335;SDS011;15592;53.656;7.276;2022-09-02T11:56:07;3.30;;;1.40;;
28335;SDS011;15592;53.656;7.276;2022-09-02T11:58:49;1.47;;;1.37;;
28335;SDS011;15592;53.656;7.276;2022-09-02T12:03:45;1.60;;;1.10;;
28335;SDS011;15592;53.656;7.276;2022-09-02T12:06:17;1.25;;;1.15;;
28335;SDS011;15592;53.656;7.276;2022-09-02T12:11:55;2.53;;;1.38;;
28335;SDS011;15592;53.656;7.276;2022-09-02T12:14:10;1.80;;;1.40;;
28335;SDS011;15592;53.656;7.276;2022-09-02T12:19:28;1.35;;;1.15;;
28335;SDS011;15592;53.656;7.276;2022-09-02T12:27:48;4.30;;;1.50;;
28335;SDS011;15592;53.656;7.276;2022-09-02T12:30:14;2.25;;;1.40;;
28335;SDS011;15592;53.656;7.276;2022-09-02T12:33:34;1.73;;;1.40;;
28335;SDS011;15592;53.656;7.276;2022-09-02T12:36:00;1.48;;;1.25;;
28335;SDS011;15592;53.656;7.276;2022-09-02T12:38:35;1.40;;;1.30;;
28335;SDS011;15592;53.656;7.276;2022-09-02T12:43:36;2.53;;;1.52;;
28335;SDS011;15592;53.656;7.276;2022-09-02T12:49:04;1.65;;;1.48;;
28335;SDS011;15592;53.656;7.276;2022-09-02T12:51:55;3.17;;;1.40;;
28335;SDS011;15592;53.656;7.276;2022-09-02T12:54:26;1.50;;;1.30;;
28335;SDS011;15592;53.656;7.276;2022-09-02T12:57:00;1.50;;;1.40;;
28335;SDS011;15592;53.656;7.276;2022-09-02T13:02:09;1.75;;;1.27;;
28335;SDS011;15592;53.656;7.276;2022-09-02T13:23:55;3.40;;;1.33;;
28335;SDS011;15592;53.656;7.276;2022-09-02T13:32:27;1.75;;;1.20;;
28335;SDS011;15592;53.656;7.276;2022-09-02T13:34:47;2.00;;;1.52;;
28335;SDS011;15592;53.656;7.276;2022-09-02T13:37:25;2.20;;;1.23;;
28335;SDS011;15592;53.656;7.276;2022-09-02T13:39:55;3.30;;;1.30;;
28335;SDS011;15592;53.656;7.276;2022-09-02T13:42:25;1.58;;;1.02;;
28335;SDS011;15592;53.656;7.276;2022-09-02T13:45:09;1.67;;;1.10;;
28335;SDS011;15592;53.656;7.276;2022-09-02T13:47:54;1.55;;;1.20;;
28335;SDS011;15592;53.656;7.276;2022-09-02T13:50:27;2.25;;;1.40;;
28335;SDS011;15592;53.656;7.276;2022-09-02T13:52:55;2.95;;;1.40;;
28335;SDS011;15592;53.656;7.276;2022-09-02T13:55:29;1.52;;;1.20;;
28335;SDS011;15592;53.656;7.276;2022-09-02T14:00:27;1.67;;;1.10;;
28335;SDS011;15592;53.656;7.276;2022-09-02T14:03:16;1.20;;;1.10;;
28335;SDS011;15592;53.656;7.276;2022-09-02T14:05:43;1.90;;;1.17;;
28335;SDS011;15592;53.656;7.276;2022-09-02T14:08:11;2.55;;;1.30;;
28335;SDS011;15592;53.656;7.276;2022-09-02T14:10:40;1.52;;;1.20;;
28335;SDS011;15592;53.656;7.276;2022-09-02T14:13:07;1.90;;;1.00;;
28335;SDS011;15592;53.656;7.276;2022-09-02T14:15:34;1.23;;;1.00;;
28335;SDS011;15592;53.656;7.276;2022-09-02T14:18:10;2.08;;;1.10;;
28335;SDS011;15592;53.656;7.276;2022-09-02T14:20:37;1.40;;;1.08;;
28335;SDS011;15592;53.656;7.276;2022-09-02T14:23:15;1.25;;;1.10;;
28335;SDS011;15592;53.656;7.276;2022-09-02T14:25:47;1.38;;;1.10;;
28335;SDS011;15592;53.656;7.276;2022-09-02T14:28:32;1.90;;;1.13;;
28335;SDS011;15592;53.656;7.276;2022-09-02T14:31:03;2.42;;;1.10;;
28335;SDS011;15592;53.656;7.276;2022-09-02T14:33:40;3.53;;;1.20;;
28335;SDS011;15592;53.656;7.276;2022-09-02T14:41:11;3.28;;;1.15;;
28335;SDS011;15592;53.656;7.276;2022-09-02T14:43:41;1.77;;;1.20;;
28335;SDS011;15592;53.656;7.276;2022-09-02T14:46:27;2.03;;;1.08;;
28335;SDS011;15592;53.656;7.276;2022-09-02T14:49:10;2.97;;;1.35;;
28335;SDS011;15592;53.656;7.276;2022-09-02T14:51:48;1.60;;;1.30;;
28335;SDS011;15592;53.656;7.276;2022-09-02T14:57:27;1.60;;;1.20;;
28335;SDS011;15592;53.656;7.276;2022-09-02T14:59:56;3.00;;;1.52;;
28335;SDS011;15592;53.656;7.276;2022-09-02T15:02:35;1.42;;;1.20;;
28335;SDS011;15592;53.656;7.276;2022-09-02T15:05:05;1.30;;;1.20;;
28335;SDS011;15592;53.656;7.276;2022-09-02T15:07:33;1.55;;;1.15;;
28335;SDS011;15592;53.656;7.276;2022-09-02T15:09:59;1.92;;;1.30;;
28335;SDS011;15592;53.656;7.276;2022-09-02T15:12:26;1.33;;;1.23;;
28335;SDS011;15592;53.656;7.276;2022-09-02T15:14:57;1.63;;;1.30;;
28335;SDS011;15592;53.656;7.276;2022-09-02T15:17:23;1.52;;;1.25;;
28335;SDS011;15592;53.656;7.276;2022-09-02T15:19:49;1.45;;;1.10;;
28335;SDS011;15592;53.656;7.276;2022-09-02T15:22:16;1.85;;;1.30;;
28335;SDS011;15592;53.656;7.276;2022-09-02T15:24:42;1.33;;;1.23;;
28335;SDS011;15592;53.656;7.276;2022-09-02T15:27:09;1.30;;;1.00;;
28335;SDS011;15592;53.656;7.276;2022-09-02T15:29:35;1.55;;;1.10;;
28335;SDS011;15592;53.656;7.276;2022-09-02T15:32:01;1.40;;;1.10;;
28335;SDS011;15592;53.656;7.276;2022-09-02T15:34:28;1.50;;;1.38;;
28335;SDS011;15592;53.656;7.276;2022-09-02T15:36:54;1.58;;;1.20;;
28335;SDS011;15592;53.656;7.276;2022-09-02T15:39:21;1.38;;;1.27;;
28335;SDS011;15592;53.656;7.276;2022-09-02T15:41:48;1.80;;;1.40;;
28335;SDS011;15592;53.656;7.276;2022-09-02T15:44:17;1.35;;;1.20;;
28335;SDS011;15592;53.656;7.276;2022-09-02T15:46:43;1.95;;;1.27;;
28335;SDS011;15592;53.656;7.276;2022-09-02T15:49:10;2.08;;;1.45;;
28335;SDS011;15592;53.656;7.276;2022-09-02T15:51:38;2.30;;;1.30;;
28335;SDS011;15592;53.656;7.276;2022-09-02T15:54:09;1.48;;;1.20;;
28335;SDS011;15592;53.656;7.276;2022-09-02T15:56:36;1.70;;;1.40;;
28335;SDS011;15592;53.656;7.276;2022-09-02T15:59:15;1.77;;;1.60;;
28335;SDS011;15592;53.656;7.276;2022-09-02T16:01:46;2.05;;;1.50;;
28335;SDS011;15592;53.656;7.276;2022-09-02T16:04:16;3.20;;;1.50;;
28335;SDS011;15592;53.656;7.276;2022-09-02T16:06:43;1.83;;;1.60;;
28335;SDS011;15592;53.656;7.276;2022-09-02T16:09:12;2.50;;;1.88;;
28335;SDS011;15592;53.656;7.276;2022-09-02T16:11:42;1.52;;;1.40;;
28335;SDS011;15592;53.656;7.276;2022-09-02T16:14:13;1.90;;;1.40;;
28335;SDS011;15592;53.656;7.276;2022-09-02T16:16:40;1.60;;;1.40;;
28335;SDS011;15592;53.656;7.276;2022-09-02T16:19:06;2.30;;;1.42;;
28335;SDS011;15592;53.656;7.276;2022-09-02T16:21:32;1.85;;;1.40;;
28335;SDS011;15592;53.656;7.276;2022-09-02T16:23:59;2.92;;;1.58;;
28335;SDS011;15592;53.656;7.276;2022-09-02T16:26:25;1.60;;;1.50;;
28335;SDS011;15592;53.656;7.276;2022-09-02T16:28:59;1.95;;;1.20;;
28335;SDS011;15592;53.656;7.276;2022-09-02T16:31:27;1.70;;;1.40;;
28335;SDS011;15592;53.656;7.276;2022-09-02T16:33:55;2.22;;;1.30;;
28335;SDS011;15592;53.656;7.276;2022-09-02T16:36:23;1.55;;;1.42;;
28335;SDS011;15592;53.656;7.276;2022-09-02T16:38:49;1.70;;;1.40;;
28335;SDS011;15592;53.656;7.276;2022-09-02T16:43:58;2.67;;;1.40;;
28335;SDS011;15592;53.656;7.276;2022-09-02T16:46:25;2.38;;;1.45;;
28335;SDS011;15592;53.656;7.276;2022-09-02T16:48:52;1.25;;;1.10;;
28335;SDS011;15592;53.656;7.276;2022-09-02T16:51:19;1.92;;;1.20;;
28335;SDS011;15592;53.656;7.276;2022-09-02T16:53:46;1.33;;;1.10;;
28335;SDS011;15592;53.656;7.276;2022-09-02T16:56:12;1.50;;;1.20;;
28335;SDS011;15592;53.656;7.276;2022-09-02T16:58:39;1.52;;;1.20;;
28335;SDS011;15592;53.656;7.276;2022-09-02T17:01:06;1.48;;;1.17;;
28335;SDS011;15592;53.656;7.276;2022-09-02T17:03:36;1.33;;;1.20;;
28335;SDS011;15592;53.656;7.276;2022-09-02T17:06:03;1.30;;;1.20;;
28335;SDS011;15592;53.656;7.276;2022-09-02T17:08:28;1.48;;;1.25;;
28335;SDS011;15592;53.656;7.276;2022-09-02T17:13:57;1.17;;;1.08;;
28335;SDS011;15592;53.656;7.276;2022-09-02T17:16:25;1.10;;;1.00;;
28335;SDS011;15592;53.656;7.276;2022-09-02T17:18:56;1.83;;;1.17;;
28335;SDS011;15592;53.656;7.276;2022-09-02T17:21:26;1.40;;;1.05;;
28335;SDS011;15592;53.656;7.276;2022-09-02T17:30:23;1.30;;;1.20;;
28335;SDS011;15592;53.656;7.276;2022-09-02T17:33:18;1.35;;;1.25;;
28335;SDS011;15592;53.656;7.276;2022-09-02T17:42:44;1.30;;;1.20;;
28335;SDS011;15592;53.656;7.276;2022-09-02T17:45:13;1.90;;;1.10;;
28335;SDS011;15592;53.656;7.276;2022-09-02T17:47:50;1.30;;;1.10;;
28335;SDS011;15592;53.656;7.276;2022-09-02T17:50:51;1.15;;;1.00;;
28335;SDS011;15592;53.656;7.276;2022-09-02T17:53:28;1.33;;;1.02;;